Time;durP1;ratioP1;P1;durP2;ratioP2;P2;SDS_P1;SDS_P2;PMS_P1;PMS_P2;Temp;Humidity;BMP_temperature;BMP_pressure;BME280_temperature;BME280_humidity;BME280_pressure;Samples;Min_cycle;Max_cycle;Signal;HPM_P1;HPM_P2
2022/12/09 00:01:21;;;;;;;18.95;3.45;;;15.50;99.90;;;;;;4995761;28;20483;-71
2022/12/09 00:03:48;;;;;;;16.73;3.08;;;15.50;99.90;;;;;;4996171;28;20023;-72
2022/12/09 00:06:18;;;;;;;18.10;3.05;;;15.40;99.90;;;;;;5010683;28;20034;-70
2022/12/09 00:08:44;;;;;;;15.45;3.22;;;15.40;99.90;;;;;;4995592;28;20117;-70
2022/12/09 00:11:10;;;;;;;17.83;3.70;;;15.40;99.90;;;;;;4995888;28;20387;-71
2022/12/09 00:13:37;;;;;;;13.60;3.13;;;15.50;99.90;;;;;;4995780;28;20023;-71
2022/12/09 00:16:12;;;;;;;18.63;3.90;;;15.50;99.90;;;;;;4995927;28;20030;-71
2022/12/09 00:18:39;;;;;;;20.92;3.78;;;15.40;99.90;;;;;;4995700;28;20048;-72
2022/12/09 00:21:33;;;;;;;22.33;3.60;;;15.40;99.90;;;;;;4977688;28;20065;-72
2022/12/09 00:24:03;;;;;;;20.35;3.42;;;15.40;99.90;;;;;;4978035;28;20031;-72
2022/12/09 00:26:30;;;;;;;20.60;3.88;;;15.40;99.90;;;;;;4995498;28;20058;-72
2022/12/09 00:29:00;;;;;;;21.92;3.92;;;15.40;99.90;;;;;;4995748;28;20061;-69
2022/12/09 00:31:31;;;;;;;19.83;4.22;;;15.30;99.90;;;;;;4995413;28;20026;-71
2022/12/09 00:34:03;;;;;;;22.60;4.13;;;15.30;99.90;;;;;;4995473;28;20084;-71
2022/12/09 00:36:34;;;;;;;14.45;3.90;;;15.30;99.90;;;;;;5009666;28;20387;-71
2022/12/09 00:39:03;;;;;;;16.40;3.88;;;15.30;99.90;;;;;;4995347;28;20022;-73
2022/12/09 00:41:29;;;;;;;23.20;3.92;;;15.30;99.90;;;;;;5009791;28;20031;-71
2022/12/09 00:43:56;;;;;;;18.65;3.75;;;15.30;99.90;;;;;;4994929;28;20560;-71
2022/12/09 00:46:22;;;;;;;22.08;4.13;;;15.30;99.90;;;;;;4994988;28;20041;-71
2022/12/09 00:48:48;;;;;;;24.27;4.47;;;15.30;99.90;;;;;;4995336;28;20027;-71
2022/12/09 00:51:16;;;;;;;28.42;4.00;;;15.30;99.90;;;;;;4994947;28;20101;-71
2022/12/09 00:53:43;;;;;;;28.98;4.20;;;15.30;99.90;;;;;;4994721;28;20026;-71
2022/12/09 00:56:13;;;;;;;28.00;4.55;;;15.30;99.90;;;;;;5009712;28;20042;-72
2022/12/09 00:58:39;;;;;;;33.85;4.63;;;15.30;99.90;;;;;;4994687;28;20105;-71
2022/12/09 01:01:05;;;;;;;28.48;4.60;;;15.20;99.90;;;;;;5009946;28;20045;-71
2022/12/09 01:03:31;;;;;;;29.27;4.30;;;15.20;99.90;;;;;;4994076;28;20031;-72
2022/12/09 01:05:57;;;;;;;26.73;4.93;;;15.30;99.90;;;;;;4977187;28;20269;-71
2022/12/09 01:08:23;;;;;;;30.50;4.77;;;15.30;99.90;;;;;;4994177;28;20036;-71
2022/12/09 01:10:49;;;;;;;29.13;4.75;;;15.20;99.90;;;;;;4993885;28;20105;-71
2022/12/09 01:13:16;;;;;;;;;;;15.30;99.90;;;;;;4994202;28;20026;-71
2022/12/09 01:15:43;;;;;;;32.95;4.40;;;15.30;99.90;;;;;;4993360;28;19912;-71
2022/12/09 01:18:11;;;;;;;27.42;4.63;;;15.30;99.90;;;;;;4993898;28;20451;-72
2022/12/09 01:20:37;;;;;;;26.42;4.63;;;15.30;99.90;;;;;;4994125;28;20024;-71
2022/12/09 01:23:03;;;;;;;33.80;4.45;;;15.20;99.90;;;;;;4993579;28;20031;-71
2022/12/09 01:25:29;;;;;;;34.38;4.18;;;15.30;99.90;;;;;;4994020;28;20125;-71
2022/12/09 01:27:55;;;;;;;24.50;4.87;;;15.30;99.90;;;;;;4993796;28;20489;-71
2022/12/09 01:30:21;;;;;;;37.40;5.93;;;15.30;99.90;;;;;;4993382;28;20714;-72
2022/12/09 01:32:47;;;;;;;23.90;4.57;;;15.30;99.90;;;;;;4975909;28;20497;-71
2022/12/09 01:35:13;;;;;;;40.47;5.18;;;15.30;99.90;;;;;;4993794;28;20057;-71
2022/12/09 01:37:39;;;;;;;20.47;4.10;;;15.30;99.90;;;;;;4993728;28;20105;-72
2022/12/09 01:40:08;;;;;;;32.00;4.30;;;15.20;99.90;;;;;;4993397;28;20265;-71
2022/12/09 01:42:34;;;;;;;23.42;3.65;;;15.20;99.90;;;;;;4993132;28;20180;-71
2022/12/09 01:45:29;;;;;;;34.58;4.38;;;15.30;99.90;;;;;;4993264;28;20050;-72
2022/12/09 01:48:03;;;;;;;32.97;4.38;;;15.30;99.90;;;;;;4993369;28;20061;-71
2022/12/09 01:50:30;;;;;;;38.25;5.03;;;15.30;99.90;;;;;;4993461;28;20506;-72
2022/12/09 01:52:57;;;;;;;36.63;4.43;;;15.20;99.90;;;;;;4995602;28;20107;-70
2022/12/09 01:55:23;;;;;;;29.52;4.45;;;15.30;99.90;;;;;;5011253;28;20056;-71
2022/12/09 01:57:49;;;;;;;;;;;15.30;99.90;;;;;;5012960;28;20486;-71
2022/12/09 02:00:16;;;;;;;29.73;4.55;;;15.30;99.90;;;;;;5012859;28;19912;-71
2022/12/09 02:02:44;;;;;;;27.00;4.53;;;15.30;99.90;;;;;;4994657;28;20093;-71
2022/12/09 02:05:11;;;;;;;35.45;4.63;;;15.30;99.90;;;;;;5012399;28;20025;-71
2022/12/09 02:07:38;;;;;;;34.45;4.28;;;15.30;99.90;;;;;;5012529;28;20022;-71
2022/12/09 02:10:10;;;;;;;34.37;4.67;;;15.40;99.90;;;;;;5012213;28;20028;-72
2022/12/09 02:12:47;;;;;;;39.13;5.65;;;15.40;99.90;;;;;;5011951;28;20264;-71
2022/12/09 02:15:32;;;;;;;;;;;15.40;99.90;;;;;;5012773;28;20029;-72
2022/12/09 02:18:25;;;;;;;29.45;4.00;;;15.40;99.90;;;;;;5012415;28;19909;-71
2022/12/09 02:21:10;;;;;;;33.40;4.55;;;15.40;99.90;;;;;;4980469;28;20033;-71
2022/12/09 02:23:46;;;;;;;27.38;4.95;;;15.40;99.90;;;;;;5012296;28;20041;-71
2022/12/09 02:26:16;;;;;;;39.85;5.80;;;15.30;99.90;;;;;;5012362;28;20033;-71
2022/12/09 02:29:38;;;;;;;36.47;4.57;;;15.40;99.90;;;;;;4993998;28;20402;-72
2022/12/09 02:32:23;;;;;;;24.27;4.82;;;15.30;99.90;;;;;;4932416;29;20044;-71
2022/12/09 02:35:07;;;;;;;47.47;5.70;;;15.30;99.90;;;;;;4932410;29;20090;-71
2022/12/09 02:37:45;;;;;;;39.97;5.78;;;15.30;99.90;;;;;;4916338;29;20141;-72
2022/12/09 02:40:16;;;;;;;40.63;5.68;;;15.40;99.90;;;;;;4948056;29;20079;-71
2022/12/09 02:42:44;;;;;;;43.90;5.70;;;15.40;99.90;;;;;;4932597;29;20426;-71
2022/12/09 02:45:13;;;;;;;48.53;6.07;;;15.30;99.90;;;;;;4932189;29;20086;-71
2022/12/09 02:47:51;;;;;;;31.25;4.65;;;15.30;99.90;;;;;;4932069;29;20062;-71
2022/12/09 02:50:24;;;;;;;33.47;5.07;;;15.30;99.90;;;;;;4932107;29;20452;-71
2022/12/09 02:52:53;;;;;;;32.25;4.82;;;15.30;99.90;;;;;;4916168;29;20046;-72
2022/12/09 02:55:21;;;;;;;29.17;4.90;;;15.30;99.90;;;;;;4931886;29;20161;-71
2022/12/09 02:57:52;;;;;;;37.72;5.25;;;15.30;99.90;;;;;;4931928;29;20122;-71
2022/12/09 03:00:21;;;;;;;37.75;5.90;;;15.30;99.90;;;;;;4932109;29;20032;-71
2022/12/09 03:02:51;;;;;;;40.13;5.15;;;15.40;99.90;;;;;;4931883;29;20428;-71
2022/12/09 03:05:33;;;;;;;40.55;5.18;;;15.40;99.90;;;;;;4931423;29;20479;-69
2022/12/09 03:08:14;;;;;;;31.65;4.30;;;15.40;99.90;;;;;;4976461;28;20063;-71
2022/12/09 03:10:40;;;;;;;47.85;6.38;;;15.40;99.90;;;;;;4992131;28;20030;-71
2022/12/09 03:13:42;;;;;;;55.77;5.27;;;15.30;99.90;;;;;;4991896;28;20023;-72
2022/12/09 03:16:33;;;;;;;40.40;4.70;;;15.40;99.90;;;;;;4991626;28;20137;-71
2022/12/09 03:19:15;;;;;;;38.22;4.90;;;15.40;99.90;;;;;;4992037;28;20030;-72
2022/12/09 03:21:45;;;;;;;43.10;5.32;;;15.40;99.90;;;;;;4974452;28;20129;-71
2022/12/09 03:24:19;;;;;;;45.38;5.65;;;15.40;99.90;;;;;;5010069;28;20101;-71
2022/12/09 03:26:49;;;;;;;38.80;5.47;;;15.50;99.90;;;;;;4997479;28;20445;-71
2022/12/09 03:29:24;;;;;;;49.42;5.32;;;15.50;99.90;;;;;;5010914;28;20572;-71
2022/12/09 03:31:53;;;;;;;49.15;5.38;;;15.50;99.90;;;;;;5015733;28;20037;-72
2022/12/09 03:34:25;;;;;;;56.88;6.13;;;15.50;99.90;;;;;;5014968;28;20022;-73
2022/12/09 03:36:53;;;;;;;38.13;5.80;;;15.60;99.90;;;;;;5014881;28;20116;-71
2022/12/09 03:39:26;;;;;;;40.20;5.40;;;15.60;99.90;;;;;;5015269;28;20026;-71
2022/12/09 03:41:58;;;;;;;34.97;5.60;;;15.60;99.90;;;;;;5015329;28;20493;-71
2022/12/09 03:44:36;;;;;;;37.58;4.75;;;15.60;99.90;;;;;;5015173;28;20101;-71
2022/12/09 03:47:08;;;;;;;52.53;6.93;;;15.60;99.90;;;;;;4997516;28;20331;-73
2022/12/09 03:49:36;;;;;;;48.35;5.78;;;15.60;99.90;;;;;;5013608;28;20045;-71
2022/12/09 03:52:08;;;;;;;50.85;5.45;;;15.60;99.90;;;;;;5014551;28;20034;-72
2022/12/09 03:54:43;;;;;;;44.92;5.38;;;15.60;99.90;;;;;;5014932;28;20060;-71
2022/12/09 03:57:12;;;;;;;42.13;5.65;;;15.60;99.90;;;;;;5015534;28;20072;-70
2022/12/09 03:59:39;;;;;;;38.28;5.75;;;15.70;99.90;;;;;;5014829;28;20049;-71
2022/12/09 04:02:07;;;;;;;41.22;5.25;;;15.70;99.90;;;;;;5015051;28;20038;-71
2022/12/09 04:04:38;;;;;;;52.08;5.35;;;15.70;99.90;;;;;;5014724;28;20470;-71
2022/12/09 04:07:05;;;;;;;45.92;5.20;;;15.70;99.90;;;;;;5015518;28;20038;-70
2022/12/09 04:09:34;;;;;;;43.53;4.60;;;15.70;99.90;;;;;;5014504;28;20041;-71
2022/12/09 04:12:01;;;;;;;36.03;4.45;;;15.70;99.90;;;;;;5015431;28;20096;-71
2022/12/09 04:14:32;;;;;;;39.40;5.22;;;15.70;99.90;;;;;;5014359;28;20103;-72
2022/12/09 04:16:58;;;;;;;39.53;4.43;;;15.70;99.90;;;;;;5014497;28;20026;-73
2022/12/09 04:19:25;;;;;;;36.92;5.22;;;15.70;99.90;;;;;;5014264;28;20117;-70
2022/12/09 04:21:51;;;;;;;50.60;5.50;;;15.80;99.90;;;;;;5014848;28;20088;-71
2022/12/09 04:24:17;;;;;;;44.40;4.35;;;15.80;99.90;;;;;;4997376;28;20033;-71
2022/12/09 04:26:43;;;;;;;36.10;4.55;;;15.80;99.90;;;;;;5015327;28;20061;-72
2022/12/09 04:29:10;;;;;;;34.67;3.92;;;15.80;99.90;;;;;;4997418;28;20108;-71
2022/12/09 04:31:37;;;;;;;36.83;4.85;;;15.80;99.90;;;;;;5015219;28;20367;-71
2022/12/09 04:34:03;;;;;;;37.38;4.80;;;15.80;99.90;;;;;;5014702;28;20022;-72
2022/12/09 04:36:29;;;;;;;35.05;4.75;;;15.80;99.90;;;;;;5015092;28;20414;-71
2022/12/09 04:38:55;;;;;;;41.35;5.00;;;15.70;99.90;;;;;;5014854;28;20025;-71
2022/12/09 04:41:22;;;;;;;42.58;4.50;;;15.70;99.90;;;;;;4997309;28;20062;-72
2022/12/09 04:43:48;;;;;;;46.90;5.30;;;15.70;99.90;;;;;;5015019;28;20429;-72
2022/12/09 04:46:16;;;;;;;32.43;4.67;;;15.70;99.90;;;;;;5015045;28;20018;-72
2022/12/09 04:48:42;;;;;;;33.30;4.18;;;15.70;99.90;;;;;;5015076;28;20030;-71
2022/12/09 04:51:10;;;;;;;48.08;5.15;;;15.60;99.90;;;;;;5014571;28;20101;-71
2022/12/09 04:53:37;;;;;;;39.72;4.70;;;15.60;99.90;;;;;;5014434;28;20101;-71
2022/12/09 04:56:08;;;;;;;31.25;4.25;;;15.60;99.90;;;;;;5014503;28;20022;-72
2022/12/09 04:58:34;;;;;;;38.97;4.60;;;15.60;99.90;;;;;;5015144;28;20025;-68
2022/12/09 05:01:11;;;;;;;43.90;4.88;;;15.60;99.90;;;;;;5014453;28;20076;-71
2022/12/09 05:03:38;;;;;;;32.85;4.75;;;15.60;99.90;;;;;;5014242;28;20044;-72
2022/12/09 05:06:08;;;;;;;38.03;3.58;;;15.60;99.90;;;;;;4997038;28;20433;-72
2022/12/09 05:08:40;;;;;;;38.42;5.13;;;15.60;99.90;;;;;;5014223;28;20450;-72
2022/12/09 05:11:09;;;;;;;28.05;4.15;;;15.70;99.90;;;;;;5013765;28;20041;-71
2022/12/09 05:13:37;;;;;;;37.00;4.50;;;15.70;99.90;;;;;;5013979;28;20034;-71
2022/12/09 05:16:09;;;;;;;31.00;4.07;;;15.60;99.90;;;;;;5014296;28;20033;-72
2022/12/09 05:18:35;;;;;;;35.80;5.05;;;15.60;99.90;;;;;;5014555;28;20034;-70
2022/12/09 05:21:14;;;;;;;52.85;5.13;;;15.60;99.90;;;;;;5014762;28;20069;-72
2022/12/09 05:23:41;;;;;;;30.80;3.50;;;15.60;99.90;;;;;;5014676;28;20534;-72
2022/12/09 05:26:11;;;;;;;34.05;4.10;;;15.60;99.90;;;;;;5014362;28;20022;-72
2022/12/09 05:28:37;;;;;;;28.77;4.40;;;15.60;99.90;;;;;;4997765;28;20030;-71
2022/12/09 05:31:13;;;;;;;37.92;4.85;;;15.60;99.90;;;;;;5012194;28;20534;-71
2022/12/09 05:33:40;;;;;;;39.67;4.82;;;15.60;99.90;;;;;;5014196;28;20037;-71
2022/12/09 05:36:10;;;;;;;29.58;4.10;;;15.70;99.90;;;;;;5014198;28;20065;-72
2022/12/09 05:38:36;;;;;;;40.70;4.43;;;15.70;99.90;;;;;;5014565;28;20065;-71
2022/12/09 05:41:02;;;;;;;26.35;3.65;;;15.70;99.90;;;;;;4995582;28;20034;-71
2022/12/09 05:43:29;;;;;;;26.88;3.78;;;15.70;99.90;;;;;;5008960;28;20088;-71
2022/12/09 05:46:02;;;;;;;31.17;4.47;;;15.70;99.90;;;;;;4999913;28;20014;-70
2022/12/09 05:48:28;;;;;;;26.38;4.00;;;15.70;99.90;;;;;;5009015;28;20030;-71
2022/12/09 05:51:06;;;;;;;22.63;3.78;;;15.70;99.90;;;;;;5005063;28;20026;-69
2022/12/09 05:53:43;;;;;;;29.90;4.38;;;15.70;99.90;;;;;;5004528;28;20078;-71
2022/12/09 05:56:13;;;;;;;27.08;3.63;;;15.70;99.90;;;;;;5009109;28;20482;-71
2022/12/09 05:58:39;;;;;;;28.75;4.45;;;15.70;99.90;;;;;;5003450;28;20049;-72
2022/12/09 06:01:06;;;;;;;33.40;4.13;;;15.70;99.90;;;;;;5001427;28;20026;-71
2022/12/09 06:03:34;;;;;;;22.70;3.28;;;15.70;99.90;;;;;;4994758;28;20030;-71
2022/12/09 06:06:10;;;;;;;27.60;3.47;;;15.70;99.90;;;;;;4993887;28;20109;-71
2022/12/09 06:08:37;;;;;;;37.35;4.10;;;15.70;99.90;;;;;;4994583;28;20470;-71
2022/12/09 06:11:03;;;;;;;;;;;15.80;99.90;;;;;;4994703;28;20081;-70
2022/12/09 06:13:29;;;;;;;25.23;3.25;;;15.80;99.90;;;;;;4993637;28;19905;-71
2022/12/09 06:16:00;;;;;;;27.55;3.40;;;15.80;99.90;;;;;;4993586;28;20153;-70
2022/12/09 06:18:26;;;;;;;29.13;3.92;;;15.80;99.90;;;;;;4994771;28;20057;-70
2022/12/09 06:20:52;;;;;;;33.93;5.00;;;15.80;99.90;;;;;;4995035;28;20101;-70
2022/12/09 06:23:18;;;;;;;28.07;4.33;;;15.90;99.90;;;;;;4994852;28;20293;-70
2022/12/09 06:25:47;;;;;;;31.55;4.10;;;15.80;99.90;;;;;;4994903;28;20022;-71
2022/12/09 06:28:14;;;;;;;27.58;3.90;;;15.80;99.90;;;;;;4994143;28;20543;-70
2022/12/09 06:30:40;;;;;;;27.97;3.63;;;15.90;99.90;;;;;;4993280;28;20568;-70
2022/12/09 06:33:06;;;;;;;32.30;4.13;;;15.90;99.90;;;;;;4993423;28;20272;-68
2022/12/09 06:35:35;;;;;;;26.35;3.33;;;16.00;99.90;;;;;;5003953;28;20265;-71
2022/12/09 06:38:06;;;;;;;25.83;3.75;;;16.00;99.90;;;;;;4994634;28;20029;-71
2022/12/09 06:40:33;;;;;;;24.73;3.55;;;16.00;99.90;;;;;;5012526;28;20037;-71
2022/12/09 06:42:59;;;;;;;37.10;3.67;;;16.00;99.90;;;;;;5012852;28;20044;-71
2022/12/09 06:45:27;;;;;;;28.60;3.80;;;16.10;99.90;;;;;;5012268;28;20257;-71
2022/12/09 06:47:53;;;;;;;;;;;16.10;99.90;;;;;;5013131;28;20097;-71
2022/12/09 06:50:19;;;;;;;20.92;2.90;;;16.10;99.90;;;;;;5012162;28;20031;-66
2022/12/09 06:52:45;;;;;;;20.02;3.00;;;16.30;99.90;;;;;;5027283;28;20446;-70
2022/12/09 06:55:12;;;;;;;30.83;3.23;;;16.20;99.90;;;;;;4994167;28;20030;-70
2022/12/09 06:57:38;;;;;;;20.70;3.28;;;16.40;99.90;;;;;;5011702;28;20088;-70
2022/12/09 07:00:05;;;;;;;21.23;3.50;;;16.40;99.90;;;;;;5012028;28;20026;-71
2022/12/09 07:02:31;;;;;;;;;;;16.40;99.90;;;;;;5012121;28;20038;-71
2022/12/09 07:04:57;;;;;;;20.52;2.72;;;16.50;99.90;;;;;;5011994;28;20055;-72
2022/12/09 07:07:23;;;;;;;32.70;3.65;;;16.50;99.90;;;;;;5012462;28;20044;-71
2022/12/09 07:09:50;;;;;;;27.97;4.03;;;16.60;99.90;;;;;;5011939;28;20485;-72
2022/12/09 07:12:17;;;;;;;26.90;3.90;;;16.60;99.90;;;;;;5027356;28;20376;-72
2022/12/09 07:14:43;;;;;;;21.27;3.47;;;16.60;99.90;;;;;;5011843;28;20064;-80
2022/12/09 07:17:20;;;;;;;28.25;3.65;;;16.60;99.90;;;;;;5012567;28;20022;-78
2022/12/09 07:19:46;;;;;;;20.80;3.28;;;16.50;99.90;;;;;;4995026;28;20184;-78
2022/12/09 07:22:13;;;;;;;21.80;2.70;;;16.60;99.90;;;;;;5012311;28;20367;-79
2022/12/09 07:24:41;;;;;;;20.02;2.83;;;16.60;99.90;;;;;;5012343;28;20042;-79
2022/12/09 07:27:36;;;;;;;31.33;3.08;;;16.60;99.90;;;;;;5013058;28;20022;-79
2022/12/09 07:30:03;;;;;;;18.95;2.90;;;16.60;99.90;;;;;;5012485;28;20046;-79
2022/12/09 07:32:29;;;;;;;22.52;2.83;;;16.60;99.90;;;;;;4994585;28;20119;-79
2022/12/09 07:34:56;;;;;;;22.17;3.08;;;16.70;99.90;;;;;;5012547;28;20030;-75
2022/12/09 07:37:22;;;;;;;22.25;3.78;;;16.70;99.90;;;;;;5012606;28;20537;-74
2022/12/09 07:39:48;;;;;;;19.50;3.30;;;16.90;99.90;;;;;;5012771;28;20168;-77
2022/12/09 07:42:14;;;;;;;20.37;3.77;;;16.80;99.90;;;;;;5012548;28;20299;-76
2022/12/09 07:44:42;;;;;;;23.75;3.13;;;17.00;99.90;;;;;;5013138;28;20257;-75
2022/12/09 07:47:12;;;;;;;25.30;3.63;;;17.00;99.90;;;;;;5012496;28;20070;-76
2022/12/09 07:49:39;;;;;;;27.38;3.67;;;16.90;99.90;;;;;;5013015;28;20018;-75
2022/12/09 07:52:11;;;;;;;17.20;3.20;;;16.90;99.90;;;;;;5012470;28;20485;-77
2022/12/09 07:54:38;;;;;;;32.75;3.08;;;17.10;99.90;;;;;;4995725;28;20461;-77
2022/12/09 07:57:04;;;;;;;19.42;2.80;;;17.20;99.90;;;;;;5011816;28;20014;-75
2022/12/09 07:59:31;;;;;;;23.73;3.42;;;17.10;99.90;;;;;;5012888;28;20061;-76
2022/12/09 08:01:58;;;;;;;16.23;2.72;;;17.20;99.90;;;;;;5012236;28;20080;-75
2022/12/09 08:04:25;;;;;;;17.52;2.60;;;17.10;99.90;;;;;;5011846;28;20437;-76
2022/12/09 08:06:51;;;;;;;18.08;2.85;;;17.20;99.90;;;;;;4994685;28;20018;-75
2022/12/09 08:09:18;;;;;;;;;;;17.30;99.90;;;;;;4979689;28;20049;-76
2022/12/09 08:11:44;;;;;;;27.48;2.95;;;17.50;99.90;;;;;;5015866;28;19905;-76
2022/12/09 08:14:11;;;;;;;16.85;3.38;;;17.50;99.90;;;;;;5015759;28;20418;-70
2022/12/09 08:16:37;;;;;;;18.67;2.80;;;17.50;99.90;;;;;;4996050;28;20445;-75
2022/12/09 08:19:04;;;;;;;21.35;2.70;;;17.50;99.90;;;;;;4996567;28;20058;-76
2022/12/09 08:21:33;;;;;;;22.35;2.88;;;17.70;99.90;;;;;;4996175;28;20034;-76
2022/12/09 08:24:01;;;;;;;23.92;3.28;;;17.80;99.90;;;;;;4996053;28;20026;-78
2022/12/09 08:26:30;;;;;;;18.70;2.63;;;17.90;99.90;;;;;;4995825;28;20026;-75
2022/12/09 08:28:57;;;;;;;16.25;3.00;;;18.00;99.90;;;;;;4996669;28;20109;-75
2022/12/09 08:31:24;;;;;;;31.23;3.83;;;18.00;99.90;;;;;;4978417;28;20058;-75
2022/12/09 08:33:51;;;;;;;18.38;3.45;;;18.00;99.90;;;;;;4995499;28;20026;-75
2022/12/09 08:36:23;;;;;;;26.35;4.13;;;18.10;99.90;;;;;;4995291;28;20252;-75
2022/12/09 08:38:49;;;;;;;19.48;3.28;;;18.10;99.90;;;;;;4995897;28;20022;-74
2022/12/09 08:41:19;;;;;;;13.48;3.03;;;18.10;99.90;;;;;;4995854;28;20030;-73
2022/12/09 08:43:46;;;;;;;21.55;2.97;;;18.10;99.90;;;;;;4993763;28;20199;-75
2022/12/09 08:46:13;;;;;;;14.98;2.67;;;18.00;99.90;;;;;;5004916;28;20034;-75
2022/12/09 08:48:40;;;;;;;;;;;17.90;99.90;;;;;;5014857;28;20447;-75
2022/12/09 08:51:10;;;;;;;19.13;2.30;;;17.90;99.90;;;;;;5014095;28;19936;-75
2022/12/09 08:53:38;;;;;;;19.40;3.08;;;18.00;99.90;;;;;;5014442;28;20099;-74
2022/12/09 08:56:12;;;;;;;14.85;2.88;;;18.00;99.90;;;;;;4995180;28;20252;-75
2022/12/09 08:58:40;;;;;;;22.58;2.53;;;18.00;99.90;;;;;;5013792;28;20476;-75
2022/12/09 09:01:13;;;;;;;17.33;3.03;;;18.00;99.90;;;;;;5013814;28;20041;-75
2022/12/09 09:03:39;;;;;;;22.73;3.05;;;18.00;99.90;;;;;;4995652;28;20050;-75
2022/12/09 09:06:07;;;;;;;19.77;3.28;;;18.10;99.90;;;;;;4996039;28;20022;-74
2022/12/09 09:08:39;;;;;;;24.75;3.15;;;18.00;99.90;;;;;;5013898;28;20092;-74
2022/12/09 09:11:14;;;;;;;24.48;2.88;;;18.00;99.90;;;;;;5013937;28;20049;-74
2022/12/09 09:13:42;;;;;;;18.35;2.65;;;18.20;99.90;;;;;;5013503;28;20163;-74
2022/12/09 09:16:16;;;;;;;27.55;3.45;;;18.20;99.90;;;;;;5013583;28;20018;-74
2022/12/09 09:18:43;;;;;;;23.88;3.03;;;18.30;99.90;;;;;;5014614;28;20461;-74
2022/12/09 09:21:10;;;;;;;;;;;18.20;99.90;;;;;;5014700;28;20528;-75
2022/12/09 09:23:36;;;;;;;26.00;3.38;;;18.30;99.90;;;;;;5014738;28;20008;-75
2022/12/09 09:26:03;;;;;;;26.52;3.70;;;18.40;99.90;;;;;;5014258;28;20056;-76
2022/12/09 09:28:29;;;;;;;;;;;18.40;99.90;;;;;;5012923;28;20100;-75
2022/12/09 09:31:04;;;;;;;18.23;2.83;;;18.40;99.90;;;;;;5012953;28;20413;-75
2022/12/09 09:33:30;;;;;;;18.52;3.47;;;18.50;99.90;;;;;;5014245;28;20105;-75
2022/12/09 09:36:02;;;;;;;21.10;2.72;;;18.50;99.90;;;;;;4996109;28;20030;-76
2022/12/09 09:38:31;;;;;;;25.90;3.47;;;18.70;99.90;;;;;;4996328;28;20453;-75
2022/12/09 09:40:59;;;;;;;21.40;3.20;;;18.80;99.90;;;;;;5014122;28;20033;-75
2022/12/09 09:43:38;;;;;;;23.50;3.72;;;18.90;99.90;;;;;;4996399;28;20120;-75
2022/12/09 09:46:04;;;;;;;31.95;4.68;;;19.10;99.90;;;;;;4996136;28;20042;-76
2022/12/09 09:48:34;;;;;;;27.92;3.85;;;19.10;99.90;;;;;;5010855;28;20033;-75
2022/12/09 09:51:14;;;;;;;31.83;3.30;;;19.10;99.90;;;;;;4995280;28;20041;-75
2022/12/09 09:53:41;;;;;;;31.33;4.72;;;19.30;99.90;;;;;;4995773;28;20030;-76
2022/12/09 09:56:19;;;;;;;24.13;4.00;;;19.40;99.90;;;;;;5013583;28;20056;-75
2022/12/09 09:59:09;;;;;;;26.23;3.92;;;19.60;99.90;;;;;;5013562;28;20021;-75
2022/12/09 10:01:36;;;;;;;22.55;3.55;;;19.50;99.90;;;;;;5013397;28;20423;-74
2022/12/09 10:07:50;;;;;;;28.73;3.83;;;19.70;99.90;;;;;;5013127;28;20152;-75
2022/12/09 10:10:30;;;;;;;32.15;4.32;;;19.60;99.90;;;;;;5012811;28;20029;-75
2022/12/09 10:13:44;;;;;;;31.70;3.85;;;19.40;99.90;;;;;;5013013;28;20378;-75
2022/12/09 10:16:24;;;;;;;25.92;3.65;;;19.40;99.90;;;;;;4999469;28;20034;-75
2022/12/09 10:19:10;;;;;;;20.48;3.45;;;19.40;99.90;;;;;;5013111;28;20136;-75
2022/12/09 10:21:44;;;;;;;31.33;4.43;;;19.40;99.90;;;;;;5012893;28;20095;-75
2022/12/09 10:24:33;;;;;;;30.40;3.92;;;19.40;99.90;;;;;;5013016;28;20083;-74
2022/12/09 10:27:16;;;;;;;24.88;3.78;;;19.30;99.90;;;;;;5004968;28;20109;-75
2022/12/09 10:29:53;;;;;;;25.80;3.63;;;19.20;99.90;;;;;;5012509;28;20394;-75
2022/12/09 10:32:20;;;;;;;29.38;3.92;;;19.30;99.90;;;;;;5011348;28;20034;-71
2022/12/09 10:34:47;;;;;;;21.60;3.20;;;19.30;99.90;;;;;;5012171;28;20030;-75
2022/12/09 10:37:30;;;;;;;;;;;19.30;99.90;;;;;;5012958;28;20343;-76
2022/12/09 10:40:05;;;;;;;31.00;3.53;;;19.20;99.90;;;;;;4994547;28;19909;-75
2022/12/09 10:45:23;;;;;;;24.38;3.67;;;19.10;99.90;;;;;;5012570;28;20029;-75
2022/12/09 10:47:51;;;;;;;30.35;4.25;;;19.10;99.90;;;;;;5012524;28;20061;-75
2022/12/09 10:50:34;;;;;;;24.52;4.35;;;19.00;99.90;;;;;;5011862;28;20101;-75
2022/12/09 10:53:11;;;;;;;37.58;4.45;;;18.90;99.90;;;;;;4994690;28;20041;-75
2022/12/09 10:55:39;;;;;;;;;;;18.70;99.90;;;;;;4996195;28;20049;-75
2022/12/09 10:58:18;;;;;;;24.13;3.70;;;18.70;99.90;;;;;;5012079;28;19906;-76
2022/12/09 11:01:10;;;;;;;27.23;4.13;;;18.60;99.90;;;;;;5011862;28;20114;-75
2022/12/09 11:03:54;;;;;;;22.73;3.63;;;18.60;99.90;;;;;;5012263;28;20121;-74
2022/12/09 11:06:30;;;;;;;37.80;4.15;;;18.70;99.90;;;;;;5012457;28;20017;-74
2022/12/09 11:09:02;;;;;;;24.15;3.80;;;18.70;99.90;;;;;;5012117;28;20504;-73
2022/12/09 11:11:47;;;;;;;26.70;3.60;;;18.70;99.90;;;;;;4993748;28;20026;-74
2022/12/09 11:14:23;;;;;;;22.25;3.90;;;18.70;99.90;;;;;;5012123;28;20060;-74
2022/12/09 11:16:53;;;;;;;;;;;18.70;99.90;;;;;;5012776;28;20041;-74
2022/12/09 11:19:36;;;;;;;32.13;3.75;;;18.60;99.90;;;;;;4993889;28;20285;-74
2022/12/09 11:22:50;;;;;;;30.60;4.15;;;18.60;99.90;;;;;;4993851;28;20136;-74
2022/12/09 11:25:25;;;;;;;36.05;4.68;;;18.70;99.90;;;;;;4932371;29;20039;-74
2022/12/09 11:27:59;;;;;;;28.02;4.28;;;18.70;99.90;;;;;;4932940;29;20074;-74
2022/12/09 11:30:56;;;;;;;25.63;4.13;;;18.70;99.90;;;;;;4932190;29;20106;-74
2022/12/09 11:33:46;;;;;;;32.90;4.45;;;18.80;99.90;;;;;;4875930;29;20528;-75
2022/12/09 11:36:44;;;;;;;22.00;3.50;;;18.80;99.90;;;;;;4876547;29;20081;-74
2022/12/09 11:39:28;;;;;;;28.45;3.80;;;18.90;99.90;;;;;;4875859;29;20074;-74
2022/12/09 11:42:13;;;;;;;30.30;5.00;;;18.80;99.90;;;;;;4876579;29;20048;-74
2022/12/09 11:45:21;;;;;;;31.52;4.63;;;18.90;99.90;;;;;;4877835;29;20072;-75
2022/12/09 11:48:21;;;;;;;32.88;4.10;;;18.90;99.90;;;;;;4824113;29;20094;-69
2022/12/09 11:50:50;;;;;;;26.20;4.28;;;18.90;99.90;;;;;;4824107;29;20094;-73
2022/12/09 11:53:22;;;;;;;33.55;4.63;;;18.90;99.90;;;;;;4823911;29;20034;-73
2022/12/09 11:56:04;;;;;;;31.55;4.30;;;18.90;99.90;;;;;;4824000;29;20066;-74
2022/12/09 11:58:41;;;;;;;26.65;3.80;;;18.90;99.90;;;;;;4824194;29;20508;-73
2022/12/09 12:01:16;;;;;;;35.40;4.60;;;18.80;99.90;;;;;;4823887;29;20022;-73
2022/12/09 12:03:59;;;;;;;21.75;3.45;;;18.80;99.90;;;;;;4841889;29;20432;-74
2022/12/09 12:06:48;;;;;;;22.60;4.00;;;18.90;99.90;;;;;;4826594;29;20030;-73
2022/12/09 12:09:44;;;;;;;34.80;4.25;;;18.90;99.90;;;;;;4864384;29;20447;-73
2022/12/09 12:12:28;;;;;;;;;;;19.00;99.90;;;;;;4912049;29;20103;-73
2022/12/09 12:15:00;;;;;;;29.35;4.00;;;18.90;99.90;;;;;;4916168;29;19937;-73
2022/12/09 12:17:35;;;;;;;24.48;4.32;;;19.00;99.90;;;;;;4916315;29;20071;-73
2022/12/09 12:20:04;;;;;;;31.90;3.75;;;18.80;99.90;;;;;;4916893;29;20063;-73
2022/12/09 12:23:07;;;;;;;32.55;4.93;;;18.60;99.90;;;;;;4916776;29;20036;-73
2022/12/09 12:25:46;;;;;;;24.10;4.43;;;18.60;99.90;;;;;;5015158;28;20077;-73
2022/12/09 12:28:43;;;;;;;24.63;3.55;;;18.60;99.90;;;;;;5015934;28;20462;-72
2022/12/09 12:31:27;;;;;;;24.98;3.45;;;18.50;99.90;;;;;;5013831;28;20042;-73
2022/12/09 12:34:12;;;;;;;26.33;3.83;;;18.40;99.90;;;;;;5015144;28;20478;-72
2022/12/09 12:37:05;;;;;;;27.88;4.35;;;18.40;99.90;;;;;;5015422;28;20123;-73
2022/12/09 12:39:55;;;;;;;26.75;3.60;;;18.40;99.90;;;;;;5015487;28;20378;-73
2022/12/09 12:46:25;;;;;;;27.38;4.35;;;18.40;99.90;;;;;;5015516;28;20061;-73
2022/12/09 12:48:56;;;;;;;30.95;4.63;;;18.40;99.90;;;;;;4954682;28;20481;-73
2022/12/09 12:51:51;;;;;;;30.15;4.78;;;18.40;99.90;;;;;;4954901;29;20063;-74
2022/12/09 12:54:29;;;;;;;32.83;5.90;;;18.40;99.90;;;;;;4936356;29;20035;-73
2022/12/09 12:57:13;;;;;;;31.77;5.93;;;18.40;99.90;;;;;;4954542;29;20035;-74
2022/12/09 12:59:57;;;;;;;26.02;6.15;;;18.50;99.90;;;;;;4946012;29;20495;-73
2022/12/09 13:03:12;;;;;;;28.30;6.40;;;18.40;99.90;;;;;;4940077;29;20044;-73
2022/12/09 13:05:42;;;;;;;32.40;6.35;;;18.50;99.90;;;;;;4882113;29;20063;-74
2022/12/09 13:08:35;;;;;;;33.55;7.18;;;18.40;99.90;;;;;;4897393;29;20489;-73
2022/12/09 13:11:10;;;;;;;38.90;8.00;;;18.50;99.90;;;;;;4896608;29;20462;-73
2022/12/09 13:13:50;;;;;;;32.90;7.70;;;18.40;99.90;;;;;;4897318;29;20120;-72
2022/12/09 13:16:26;;;;;;;32.40;6.10;;;18.50;99.90;;;;;;4881710;29;20533;-73
2022/12/09 13:18:58;;;;;;;27.73;4.88;;;18.40;99.90;;;;;;4897836;29;20051;-74